createdAt,value
2023-06-29T00:02:01.528Z,17.40
2023-06-29T00:04:28.834Z,18.90
2023-06-29T00:06:56.135Z,16.90
2023-06-29T00:09:23.977Z,21.25
2023-06-29T00:11:51.633Z,18.08
2023-06-29T00:14:18.817Z,18.30
2023-06-29T00:16:46.118Z,17.55
2023-06-29T00:19:15.786Z,18.73
2023-06-29T00:21:43.535Z,17.08
2023-06-29T00:24:13.529Z,18.70
2023-06-29T00:26:40.737Z,20.15
2023-06-29T00:29:07.983Z,20.98
2023-06-29T00:31:36.547Z,18.55
2023-06-29T00:34:03.878Z,20.95
2023-06-29T00:36:33.429Z,21.02
2023-06-29T00:39:00.634Z,22.40
2023-06-29T00:41:27.873Z,20.90
2023-06-29T00:43:56.135Z,17.77
2023-06-29T00:46:25.435Z,19.23
2023-06-29T00:48:52.742Z,21.17
2023-06-29T00:51:21.010Z,20.90
2023-06-29T00:53:48.314Z,20.80
2023-06-29T00:56:15.601Z,20.63
2023-06-29T00:58:43.045Z,22.33
2023-06-29T01:01:10.325Z,19.90
2023-06-29T01:03:41.744Z,19.95
2023-06-29T01:06:13.787Z,22.05
2023-06-29T01:08:44.599Z,20.98
2023-06-29T01:11:12.370Z,21.83
2023-06-29T01:13:40.337Z,19.48
2023-06-29T01:16:08.319Z,22.23
2023-06-29T01:18:36.313Z,21.25
2023-06-29T01:21:04.330Z,21.17
2023-06-29T01:23:38.361Z,19.65
2023-06-29T01:26:09.678Z,22.27
2023-06-29T01:28:39.706Z,21.23
2023-06-29T01:31:10.772Z,19.60
2023-06-29T01:33:38.062Z,19.67
2023-06-29T01:36:12.889Z,18.85
2023-06-29T01:38:49.635Z,20.15
2023-06-29T01:41:17.925Z,22.00
2023-06-29T01:43:45.876Z,21.00
2023-06-29T01:46:15.773Z,22.30
2023-06-29T01:48:43.337Z,19.77
2023-06-29T01:51:14.710Z,24.38
2023-06-29T01:53:42.138Z,22.00
2023-06-29T01:56:09.336Z,23.65
2023-06-29T01:58:36.645Z,21.92
2023-06-29T02:01:03.946Z,23.88
2023-06-29T02:03:31.306Z,21.55
2023-06-29T02:05:58.545Z,22.40
2023-06-29T02:08:26.219Z,23.13
2023-06-29T02:10:53.546Z,20.98
2023-06-29T02:13:20.718Z,20.13
2023-06-29T02:15:47.919Z,23.35
2023-06-29T02:18:15.272Z,21.40
2023-06-29T02:20:42.600Z,23.30
2023-06-29T02:23:09.905Z,20.67
2023-06-29T02:25:37.264Z,24.48
2023-06-29T02:28:04.589Z,20.27
2023-06-29T02:30:31.827Z,22.58
2023-06-29T02:32:59.276Z,21.48
2023-06-29T02:35:26.656Z,22.67
2023-06-29T02:37:54.406Z,23.40
2023-06-29T02:40:21.702Z,21.23
2023-06-29T02:42:49.657Z,22.23
2023-06-29T02:45:17.233Z,21.20
2023-06-29T02:47:44.618Z,24.55
2023-06-29T02:50:11.999Z,22.75
2023-06-29T02:52:47.380Z,23.13
2023-06-29T02:55:14.994Z,22.42
2023-06-29T02:57:42.307Z,21.52
2023-06-29T03:00:10.275Z,25.05
2023-06-29T03:02:38.518Z,23.35
2023-06-29T03:05:06.077Z,23.98
2023-06-29T03:07:34.330Z,23.15
2023-06-29T03:10:02.666Z,23.25
2023-06-29T03:12:29.886Z,23.90
2023-06-29T03:14:57.128Z,23.70
2023-06-29T03:17:25.762Z,25.42
2023-06-29T03:19:53.212Z,21.65
2023-06-29T03:22:20.498Z,24.65
2023-06-29T03:24:47.676Z,25.65
2023-06-29T03:27:14.891Z,22.90
2023-06-29T03:29:42.203Z,26.30
2023-06-29T03:32:09.752Z,26.75
2023-06-29T03:34:37.320Z,23.17
2023-06-29T03:37:04.671Z,27.67
2023-06-29T03:39:31.863Z,22.90
2023-06-29T03:41:59.174Z,26.35
2023-06-29T03:44:26.464Z,23.55
2023-06-29T03:46:53.705Z,22.90
2023-06-29T03:49:20.910Z,25.20
2023-06-29T03:51:48.131Z,26.63
2023-06-29T03:54:15.354Z,23.70
2023-06-29T03:56:42.561Z,26.25
2023-06-29T03:59:09.707Z,25.25
2023-06-29T04:01:36.923Z,23.35
2023-06-29T04:04:04.329Z,25.10
2023-06-29T04:06:31.660Z,26.50
2023-06-29T04:08:58.883Z,27.63
2023-06-29T04:11:26.039Z,24.52
2023-06-29T04:13:53.202Z,26.85
2023-06-29T04:16:20.466Z,25.92
2023-06-29T04:18:47.626Z,25.70
2023-06-29T04:21:14.889Z,25.92
2023-06-29T04:23:42.177Z,24.95
2023-06-29T04:26:10.818Z,28.55
2023-06-29T04:28:38.258Z,24.52
2023-06-29T04:31:05.604Z,30.30
2023-06-29T04:33:32.858Z,26.15
2023-06-29T04:36:00.025Z,25.10
2023-06-29T04:38:28.936Z,29.13
2023-06-29T04:41:04.535Z,30.50
2023-06-29T04:43:32.384Z,27.73
2023-06-29T04:46:01.534Z,30.05
2023-06-29T04:48:38.425Z,30.50
2023-06-29T04:51:06.624Z,27.42
2023-06-29T04:53:34.675Z,27.83
2023-06-29T04:56:05.272Z,27.35
2023-06-29T04:58:33.011Z,27.38
2023-06-29T05:01:00.351Z,26.35
2023-06-29T05:03:28.258Z,30.27
2023-06-29T05:05:55.690Z,27.70
2023-06-29T05:08:23.039Z,26.58
2023-06-29T05:10:51.338Z,26.42
2023-06-29T05:13:18.643Z,30.20
2023-06-29T05:15:48.966Z,26.15
2023-06-29T05:18:16.962Z,28.08
2023-06-29T05:20:44.450Z,27.92
2023-06-29T05:23:12.779Z,28.73
2023-06-29T05:25:42.239Z,28.40
2023-06-29T05:28:10.068Z,27.67
2023-06-29T05:30:37.301Z,26.42
2023-06-29T05:33:05.332Z,26.95
2023-06-29T05:35:36.711Z,27.77
2023-06-29T05:38:04.344Z,26.55
2023-06-29T05:40:33.654Z,25.73
2023-06-29T05:43:01.310Z,30.00
2023-06-29T05:45:28.584Z,28.35
2023-06-29T05:47:56.764Z,25.98
2023-06-29T05:50:24.196Z,28.40
2023-06-29T05:52:51.685Z,29.35
2023-06-29T05:55:20.573Z,25.50
2023-06-29T05:57:47.932Z,27.13
2023-06-29T06:00:15.412Z,27.55
2023-06-29T06:02:46.314Z,27.05
2023-06-29T06:05:14.060Z,28.17
2023-06-29T06:07:41.204Z,27.15
2023-06-29T06:10:08.723Z,29.00
2023-06-29T06:12:35.943Z,29.30
2023-06-29T06:15:03.270Z,32.95
2023-06-29T06:17:30.679Z,31.85
2023-06-29T06:19:57.899Z,28.50
2023-06-29T06:22:25.181Z,32.72
2023-06-29T06:24:52.479Z,30.02
2023-06-29T06:27:19.799Z,30.17
2023-06-29T06:29:47.043Z,30.73
2023-06-29T06:32:14.446Z,28.00
2023-06-29T06:34:41.634Z,32.05
2023-06-29T06:37:09.558Z,33.03
2023-06-29T06:39:36.823Z,29.65
2023-06-29T06:42:04.265Z,32.30
2023-06-29T06:44:31.556Z,31.08
2023-06-29T06:46:58.944Z,28.85
2023-06-29T06:49:26.293Z,32.63
2023-06-29T06:51:53.546Z,30.50
2023-06-29T06:54:22.491Z,31.08
2023-06-29T06:56:50.056Z,29.80
2023-06-29T06:59:17.317Z,27.70
2023-06-29T07:01:44.974Z,28.77
2023-06-29T07:04:12.856Z,28.48
2023-06-29T07:06:40.059Z,30.08
2023-06-29T07:09:08.476Z,28.13
2023-06-29T07:11:36.743Z,32.03
2023-06-29T07:14:04.060Z,28.38
2023-06-29T07:16:31.490Z,26.50
2023-06-29T07:24:31.320Z,30.23
2023-06-29T07:26:58.520Z,30.17
2023-06-29T07:29:25.769Z,29.00
2023-06-29T07:31:53.180Z,25.13
2023-06-29T07:34:24.360Z,31.08
2023-06-29T07:36:51.854Z,33.85
2023-06-29T07:39:19.114Z,32.22
2023-06-29T07:41:46.362Z,28.83
2023-06-29T07:44:13.671Z,30.95
2023-06-29T07:46:40.800Z,32.83
2023-06-29T07:49:08.255Z,33.00
2023-06-29T07:51:35.782Z,29.35
2023-06-29T07:54:05.084Z,28.42
2023-06-29T07:59:03.599Z,28.15
2023-06-29T08:01:31.165Z,30.95
2023-06-29T08:04:02.965Z,27.52
2023-06-29T08:09:03.301Z,29.30
2023-06-29T08:11:30.991Z,30.95
2023-06-29T08:13:58.319Z,28.30
2023-06-29T08:16:25.797Z,27.98
2023-06-29T08:18:53.239Z,30.08
2023-06-29T08:21:20.622Z,30.33
2023-06-29T08:23:50.093Z,28.17
2023-06-29T08:26:17.541Z,31.52
2023-06-29T08:28:45.100Z,28.75
2023-06-29T08:31:13.720Z,30.77
2023-06-29T08:33:41.215Z,30.27
2023-06-29T08:36:08.589Z,32.92
2023-06-29T08:38:35.820Z,30.45
2023-06-29T08:41:05.812Z,30.92
2023-06-29T08:43:33.306Z,29.98
2023-06-29T08:46:00.684Z,30.50
2023-06-29T08:48:28.311Z,27.73
2023-06-29T08:51:03.889Z,29.92
2023-06-29T08:53:31.429Z,30.98
2023-06-29T08:56:00.102Z,30.65
2023-06-29T08:58:27.672Z,27.98
2023-06-29T09:00:55.676Z,32.45
2023-06-29T09:03:26.557Z,29.27
2023-06-29T09:05:55.758Z,31.48
2023-06-29T09:08:24.927Z,31.98
2023-06-29T09:10:52.281Z,31.95
2023-06-29T09:13:19.762Z,29.42
2023-06-29T09:15:47.196Z,32.33
2023-06-29T09:18:14.549Z,30.40
2023-06-29T09:20:42.981Z,29.35
2023-06-29T09:23:10.510Z,31.60
2023-06-29T09:25:40.105Z,28.52
2023-06-29T09:28:08.304Z,31.33
2023-06-29T09:30:40.192Z,30.90
2023-06-29T09:33:08.909Z,28.02
2023-06-29T09:35:36.499Z,28.77
2023-06-29T09:38:04.179Z,28.42
2023-06-29T09:40:31.640Z,27.90
2023-06-29T09:43:03.953Z,28.17
2023-06-29T09:45:32.383Z,29.70
2023-06-29T09:50:30.064Z,27.65
2023-06-29T09:52:58.064Z,27.77
2023-06-29T09:55:31.557Z,26.70
2023-06-29T09:57:59.267Z,24.70
2023-06-29T10:00:28.910Z,27.52
2023-06-29T10:02:56.571Z,26.52
2023-06-29T10:05:24.084Z,26.02
2023-06-29T10:07:54.624Z,23.25
2023-06-29T10:10:24.699Z,24.30
2023-06-29T10:12:56.559Z,24.50
2023-06-29T10:15:26.519Z,26.05
2023-06-29T10:18:13.245Z,26.10
2023-06-29T10:20:45.004Z,27.17
2023-06-29T10:23:15.727Z,26.23
2023-06-29T10:25:48.027Z,28.95
2023-06-29T10:28:16.055Z,29.40
2023-06-29T10:30:52.034Z,28.33
2023-06-29T10:33:23.604Z,25.67
2023-06-29T10:36:02.673Z,26.48
2023-06-29T10:38:36.703Z,28.55
2023-06-29T10:41:09.953Z,27.20
2023-06-29T10:43:59.570Z,25.42
2023-06-29T10:46:45.354Z,24.60
2023-06-29T10:49:29.817Z,22.88
2023-06-29T10:52:03.552Z,24.75
2023-06-29T10:54:31.168Z,26.17
2023-06-29T10:57:11.757Z,25.90
2023-06-29T10:59:40.751Z,28.88
2023-06-29T11:02:08.726Z,27.15
2023-06-29T11:04:36.128Z,30.38
2023-06-29T11:07:09.554Z,26.08
2023-06-29T11:09:37.441Z,23.25
2023-06-29T11:12:04.997Z,25.65
2023-06-29T11:14:38.599Z,24.15
2023-06-29T11:17:09.090Z,23.25
2023-06-29T11:19:36.314Z,25.77
2023-06-29T11:22:03.876Z,20.55
2023-06-29T11:24:31.829Z,24.42
2023-06-29T11:26:59.161Z,24.38
2023-06-29T11:29:29.306Z,24.77
2023-06-29T11:31:56.507Z,29.63
2023-06-29T11:34:23.744Z,24.30
2023-06-29T11:37:04.164Z,24.08
2023-06-29T11:39:38.754Z,25.42
2023-06-29T11:42:10.165Z,23.17
2023-06-29T11:44:37.556Z,24.80
2023-06-29T11:47:25.572Z,26.98
2023-06-29T11:49:52.307Z,25.00
2023-06-29T11:52:19.652Z,28.15
2023-06-29T11:54:48.065Z,24.90
2023-06-29T11:57:21.529Z,27.17
2023-06-29T11:59:48.927Z,24.15
2023-06-29T12:02:16.324Z,24.80
2023-06-29T12:05:00.122Z,23.42
2023-06-29T12:07:41.102Z,26.08
2023-06-29T12:10:10.609Z,25.15
2023-06-29T12:12:38.444Z,24.10
2023-06-29T12:15:22.423Z,26.23
2023-06-29T12:20:25.498Z,25.25
2023-06-29T12:22:54.632Z,24.67
2023-06-29T12:25:22.647Z,27.48
2023-06-29T12:27:51.185Z,25.55
2023-06-29T12:30:22.320Z,23.88
2023-06-29T12:32:50.741Z,24.92
2023-06-29T12:35:18.886Z,25.83
2023-06-29T12:37:46.448Z,23.88
2023-06-29T12:40:16.013Z,28.58
2023-06-29T12:42:43.235Z,23.35
2023-06-29T12:45:10.642Z,24.50
2023-06-29T12:47:39.068Z,22.30
2023-06-29T12:50:06.824Z,21.08
2023-06-29T12:52:34.174Z,23.02
2023-06-29T12:55:01.348Z,24.02
2023-06-29T12:57:30.050Z,21.02
2023-06-29T12:59:58.146Z,16.83
2023-06-29T13:02:25.947Z,21.08
2023-06-29T13:04:53.322Z,21.73
2023-06-29T13:07:23.600Z,19.90
2023-06-29T13:09:52.963Z,22.35
2023-06-29T13:12:22.807Z,21.73
2023-06-29T13:14:51.699Z,21.95
2023-06-29T13:17:19.715Z,22.35
2023-06-29T13:19:47.640Z,24.77
2023-06-29T13:22:14.867Z,24.13
2023-06-29T13:24:42.210Z,22.23
2023-06-29T13:27:09.496Z,21.90
2023-06-29T13:29:37.085Z,21.02
2023-06-29T13:32:04.314Z,19.95
2023-06-29T13:34:34.804Z,20.63
2023-06-29T13:37:02.455Z,21.67
2023-06-29T13:39:30.659Z,19.20
2023-06-29T13:41:57.825Z,21.70
2023-06-29T13:44:25.058Z,19.98
2023-06-29T13:46:52.339Z,21.10
2023-06-29T13:49:19.761Z,20.25
2023-06-29T13:51:49.276Z,18.10
2023-06-29T13:54:16.842Z,20.95
2023-06-29T13:56:44.527Z,21.40
2023-06-29T13:59:12.175Z,22.80
2023-06-29T14:01:40.611Z,20.38
2023-06-29T14:04:09.368Z,22.08
2023-06-29T14:06:42.270Z,22.75
2023-06-29T14:09:10.566Z,21.48
2023-06-29T14:11:37.985Z,22.00
2023-06-29T14:14:05.416Z,20.60
2023-06-29T14:16:32.859Z,19.88
2023-06-29T14:19:01.220Z,19.70
2023-06-29T14:21:28.721Z,18.92
2023-06-29T14:23:56.405Z,19.08
2023-06-29T14:26:23.790Z,20.65
2023-06-29T14:28:51.117Z,23.17
2023-06-29T14:31:18.741Z,22.27
2023-06-29T14:33:46.606Z,22.88
2023-06-29T14:36:14.234Z,21.27
2023-06-29T14:38:41.724Z,20.75
2023-06-29T14:41:09.156Z,20.05
2023-06-29T14:43:36.437Z,21.10
2023-06-29T14:46:03.691Z,23.50
2023-06-29T14:48:30.999Z,23.23
2023-06-29T14:50:58.264Z,24.67
2023-06-29T14:53:25.547Z,24.25
2023-06-29T14:56:05.144Z,20.75
2023-06-29T14:58:32.457Z,25.38
2023-06-29T15:00:59.872Z,25.85
2023-06-29T15:03:27.262Z,23.50
2023-06-29T15:05:54.594Z,26.58
2023-06-29T15:08:21.828Z,25.10
2023-06-29T15:10:49.056Z,25.88
2023-06-29T15:13:16.336Z,28.80
2023-06-29T15:15:45.368Z,23.10
2023-06-29T15:18:13.114Z,20.95
2023-06-29T15:20:40.404Z,19.40
2023-06-29T15:23:07.667Z,17.83
2023-06-29T15:25:35.711Z,17.58
2023-06-29T15:28:04.407Z,16.38
2023-06-29T15:30:33.234Z,15.68
2023-06-29T15:33:06.195Z,13.50
2023-06-29T15:35:33.925Z,13.00
2023-06-29T15:38:01.374Z,11.32
2023-06-29T15:40:28.699Z,11.82
2023-06-29T15:42:55.893Z,9.80
2023-06-29T15:45:23.186Z,9.52
2023-06-29T15:47:50.586Z,8.27
2023-06-29T15:50:17.879Z,7.63
2023-06-29T15:52:45.253Z,10.38
2023-06-29T15:55:12.832Z,7.75
2023-06-29T15:57:40.224Z,6.57
2023-06-29T16:00:07.827Z,7.38
2023-06-29T16:02:40.915Z,7.90
2023-06-29T16:05:08.357Z,5.97
2023-06-29T16:07:38.261Z,6.45
2023-06-29T16:10:06.115Z,6.90
2023-06-29T16:12:33.626Z,6.90
2023-06-29T16:15:01.974Z,4.93
2023-06-29T16:17:29.862Z,3.15
2023-06-29T16:19:57.612Z,3.25
2023-06-29T16:22:24.926Z,2.88
2023-06-29T16:24:52.406Z,5.03
2023-06-29T16:27:19.662Z,4.15
2023-06-29T16:29:46.906Z,3.33
2023-06-29T16:32:14.223Z,2.83
2023-06-29T16:34:41.518Z,3.45
2023-06-29T16:37:10.343Z,8.23
2023-06-29T16:39:37.918Z,7.60
2023-06-29T16:42:05.438Z,2.50
2023-06-29T16:44:32.707Z,1.65
2023-06-29T16:46:59.937Z,3.67
2023-06-29T16:49:27.396Z,8.38
2023-06-29T16:51:55.836Z,1.52
2023-06-29T16:54:23.267Z,1.15
2023-06-29T16:56:50.492Z,1.25
2023-06-29T16:59:17.729Z,2.20
2023-06-29T17:01:45.102Z,1.25
2023-06-29T17:04:12.523Z,2.08
2023-06-29T17:06:39.872Z,1.45
2023-06-29T17:09:07.293Z,2.58
2023-06-29T17:11:34.500Z,2.67
2023-06-29T17:14:01.910Z,1.75
2023-06-29T17:16:29.366Z,2.78
2023-06-29T17:18:56.713Z,1.52
2023-06-29T17:21:24.089Z,4.60
2023-06-29T17:23:53.828Z,2.35
2023-06-29T17:26:22.354Z,2.85
2023-06-29T17:28:49.637Z,2.58
2023-06-29T17:31:16.927Z,1.80
2023-06-29T17:33:54.055Z,2.47
2023-06-29T17:36:22.663Z,3.22
2023-06-29T17:38:49.890Z,3.25
2023-06-29T17:41:17.176Z,2.28
2023-06-29T17:43:44.427Z,3.42
2023-06-29T17:46:11.881Z,2.85
2023-06-29T17:48:39.190Z,3.25
2023-06-29T17:51:16.268Z,3.67
2023-06-29T17:53:46.637Z,2.08
2023-06-29T17:56:16.003Z,2.83
2023-06-29T17:58:46.962Z,2.67
2023-06-29T18:01:14.375Z,4.47
2023-06-29T18:03:42.325Z,5.72
2023-06-29T18:06:09.913Z,2.40
2023-06-29T18:08:37.184Z,6.78
2023-06-29T18:11:04.624Z,7.60
2023-06-29T18:13:31.849Z,6.43
2023-06-29T18:15:59.285Z,4.47
2023-06-29T18:18:26.566Z,4.47
2023-06-29T18:20:53.831Z,4.60
2023-06-29T18:23:21.000Z,4.30
2023-06-29T18:25:48.427Z,3.33
2023-06-29T18:28:15.912Z,7.68
2023-06-29T18:30:43.193Z,9.70
2023-06-29T18:33:10.435Z,7.80
2023-06-29T18:35:37.772Z,7.60
2023-06-29T18:38:04.981Z,7.97
2023-06-29T18:40:32.195Z,6.90
2023-06-29T18:42:59.536Z,5.13
2023-06-29T18:45:29.989Z,5.88
2023-06-29T18:47:57.820Z,5.45
2023-06-29T18:50:25.222Z,6.20
2023-06-29T18:52:54.005Z,5.63
2023-06-29T18:55:21.207Z,4.03
2023-06-29T18:57:48.379Z,3.80
2023-06-29T19:00:15.761Z,6.80
2023-06-29T19:02:43.251Z,5.35
2023-06-29T19:05:11.270Z,2.53
2023-06-29T19:07:38.615Z,8.18
2023-06-29T19:10:05.968Z,5.65
2023-06-29T19:12:33.431Z,3.58
2023-06-29T19:15:00.808Z,4.45
2023-06-29T19:17:29.247Z,4.13
2023-06-29T19:19:56.616Z,7.15
2023-06-29T19:22:23.858Z,5.00
2023-06-29T19:24:51.146Z,4.93
2023-06-29T19:27:18.573Z,3.40
2023-06-29T19:29:45.991Z,7.32
2023-06-29T19:32:13.275Z,4.65
2023-06-29T19:34:40.530Z,7.15
2023-06-29T19:37:07.686Z,2.95
2023-06-29T19:39:34.937Z,4.32
2023-06-29T19:42:03.500Z,3.53
2023-06-29T19:44:31.042Z,3.88
2023-06-29T19:46:58.286Z,5.30
2023-06-29T19:49:26.268Z,6.47
2023-06-29T19:51:58.339Z,6.18
2023-06-29T19:54:25.902Z,5.80
2023-06-29T19:56:53.257Z,6.15
2023-06-29T19:59:20.621Z,7.05
2023-06-29T20:01:47.929Z,3.28
2023-06-29T20:04:15.393Z,7.30
2023-06-29T20:06:42.891Z,6.30
2023-06-29T20:09:10.139Z,7.55
2023-06-29T20:11:37.410Z,7.60
2023-06-29T20:14:04.718Z,6.90
2023-06-29T20:16:32.005Z,5.43
2023-06-29T20:18:59.280Z,7.07
2023-06-29T20:21:26.489Z,10.07
2023-06-29T20:23:53.842Z,7.93
2023-06-29T20:26:21.251Z,7.65
2023-06-29T20:28:48.396Z,7.72
2023-06-29T20:31:15.612Z,7.55
2023-06-29T20:33:42.940Z,9.85
2023-06-29T20:36:10.264Z,10.55
2023-06-29T20:38:37.617Z,13.63
2023-06-29T20:41:04.930Z,13.15
2023-06-29T20:43:34.381Z,8.05
2023-06-29T20:46:01.845Z,9.57
2023-06-29T20:48:29.476Z,6.35
2023-06-29T20:51:07.596Z,8.18
2023-06-29T20:53:45.135Z,8.07
2023-06-29T20:56:12.440Z,11.27
2023-06-29T20:58:39.785Z,10.90
2023-06-29T21:01:07.348Z,6.72
2023-06-29T21:03:34.977Z,6.28
2023-06-29T21:06:02.501Z,8.95
2023-06-29T21:08:30.350Z,6.10
2023-06-29T21:10:57.628Z,7.85
2023-06-29T21:13:25.175Z,10.52
2023-06-29T21:15:52.686Z,7.60
2023-06-29T21:18:20.051Z,9.70
2023-06-29T21:20:47.408Z,6.85
2023-06-29T21:23:14.860Z,5.78
2023-06-29T21:25:42.263Z,10.05
2023-06-29T21:28:11.942Z,6.28
2023-06-29T21:30:39.446Z,9.02
2023-06-29T21:33:07.020Z,7.15
2023-06-29T21:35:35.471Z,7.93
2023-06-29T21:38:02.933Z,8.02
2023-06-29T21:40:30.245Z,8.40
2023-06-29T21:42:57.479Z,9.07
2023-06-29T21:45:27.848Z,9.02
2023-06-29T21:47:55.569Z,10.02
2023-06-29T21:50:22.983Z,8.02
2023-06-29T21:52:50.268Z,7.55
2023-06-29T21:55:18.649Z,8.00
2023-06-29T21:57:45.960Z,8.60
2023-06-29T22:00:13.868Z,9.48
2023-06-29T22:02:44.807Z,5.13
2023-06-29T22:05:13.820Z,7.70
2023-06-29T22:07:41.608Z,8.57
2023-06-29T22:10:09.562Z,8.10
2023-06-29T22:12:42.394Z,9.95
2023-06-29T22:15:11.939Z,7.78
2023-06-29T22:17:39.379Z,6.50
2023-06-29T22:20:13.789Z,6.90
2023-06-29T22:22:41.268Z,9.13
2023-06-29T22:25:08.635Z,5.40
2023-06-29T22:27:36.259Z,8.77
2023-06-29T22:30:03.703Z,7.97
2023-06-29T22:32:31.324Z,8.85
2023-06-29T22:34:59.033Z,7.82
2023-06-29T22:37:26.290Z,5.93
2023-06-29T22:39:54.155Z,10.43
2023-06-29T22:42:21.388Z,10.68
2023-06-29T22:44:48.654Z,7.05
2023-06-29T22:47:15.889Z,10.45
2023-06-29T22:49:43.520Z,7.50
2023-06-29T22:52:11.004Z,8.32
2023-06-29T22:54:38.290Z,6.63
2023-06-29T22:57:05.567Z,7.60
2023-06-29T22:59:32.842Z,10.98
2023-06-29T23:02:00.013Z,9.52
2023-06-29T23:04:27.272Z,8.77
2023-06-29T23:06:54.757Z,9.50
2023-06-29T23:09:22.387Z,9.85
2023-06-29T23:11:50.630Z,12.52
2023-06-29T23:14:18.737Z,8.93
2023-06-29T23:16:47.344Z,6.35
2023-06-29T23:19:15.518Z,8.95
2023-06-29T23:21:42.819Z,9.57
2023-06-29T23:24:15.051Z,9.80
2023-06-29T23:26:42.626Z,8.80
2023-06-29T23:29:10.679Z,9.35
2023-06-29T23:31:37.940Z,11.25
2023-06-29T23:34:05.087Z,9.32
2023-06-29T23:36:32.303Z,12.52
2023-06-29T23:38:59.772Z,9.18
2023-06-29T23:41:30.765Z,10.75
2023-06-29T23:44:05.543Z,9.07
2023-06-29T23:46:41.656Z,9.77
2023-06-29T23:49:09.943Z,11.88
2023-06-29T23:51:37.620Z,11.60
2023-06-29T23:54:06.395Z,8.23
2023-06-29T23:56:33.858Z,11.90
2023-06-29T23:59:02.327Z,9.23
